Latest Weather Observations for Goulburn Airport

IDN60901

Issued at 8:15 pm EST Monday 28 July 2014 (issued every 10 minutes, with the page automatically refreshed every 10 minutes)

About weather observations | Map of Canberra area stations | Latest observations for Canberra area | Other Formats
Station Details ID: 070330 Name: GOULBURN AIRPORT AWS Lat: -34.81 Lon: 149.73 Height: 640.0 m
Data from the previous 72 hours. | See also: Recent months at Goulburn Airport
Date/Time
EST
Tmp

°C
App
Tmp
°C
Dew
Point
°C
Rel
Hum
%
Delta-T

°C
Wind Press
QNH
hPa
Press
MSL
hPa
Rain
since
9 am
mm
Dir
 
Spd
km/h
Gust
km/h
Spd
kts
Gust
kts
28/08:00pm 5.8 2.3 3.3 84 1.1 N 11 13 6 7 1019.1 - 0.0
28/07:30pm 5.7 2.4 2.4 79 1.4 N 9 13 5 7 1019.1 - 0.0
28/07:00pm 8.0 5.0 4.0 76 1.8 NNW 9 13 5 7 1019.1 - 0.0
28/06:30pm 7.2 3.7 3.3 76 1.7 NNW 11 15 6 8 1019.0 - 0.0
28/06:00pm 8.3 4.4 3.6 72 2.1 NW 13 17 7 9 1019.1 1020.3 0.0
28/05:30pm 9.1 4.6 4.3 72 2.2 WNW 17 20 9 11 1018.9 - 0.0
28/05:00pm 10.2 5.4 4.4 67 2.7 W 19 26 10 14 1019.0 - 0.0
28/04:30pm 11.7 5.6 4.7 62 3.3 W 26 35 14 19 1018.8 - 0.0
28/04:00pm 11.1 5.4 4.8 65 3.0 W 24 33 13 18 1018.5 - 0.0
28/03:30pm 11.3 4.5 5.0 65 3.0 W 30 37 16 20 1018.8 - 0.0
28/03:00pm 11.4 4.5 4.8 64 3.1 W 30 39 16 21 1018.8 1019.9 0.0
28/02:30pm 11.7 4.2 4.4 61 3.4 W 33 46 18 25 1018.7 - 0.0
28/02:00pm 12.1 4.7 5.0 62 3.4 WNW 33 43 18 23 1019.0 - 0.0
28/01:30pm 11.4 3.5 4.2 61 3.4 W 35 48 19 26 1018.9 - 0.0
28/01:00pm 11.5 3.8 5.2 65 3.0 WNW 35 46 19 25 1019.2 - 0.0
28/12:30pm 11.1 3.9 5.2 67 2.8 WNW 32 41 17 22 1020.1 - 0.0
28/12:00pm 10.3 3.1 4.9 69 2.5 W 32 44 17 24 1020.7 1021.9 0.0
28/11:30am 9.3 2.0 4.3 71 2.3 W 32 41 17 22 1021.2 - 0.0
28/11:00am 8.9 1.8 5.5 79 1.6 WNW 32 39 17 21 1021.2 - 0.0
28/10:30am 7.9 2.3 5.4 84 1.2 W 24 33 13 18 1021.7 - 0.0
28/10:00am 7.0 2.3 5.0 87 0.9 WNW 19 24 10 13 1021.9 - 0.0
28/09:30am 6.6 4.2 5.1 90 0.7 W 7 13 4 7 1022.0 - 0.0
28/09:20am 6.4 3.5 4.9 90 0.7 W 9 13 5 7 1022.1 - 0.0
28/09:00am 5.9 2.6 4.4 90 0.7 W 11 13 6 7 1022.2 1023.4 0.0
28/08:54am 5.9 3.0 4.5 91 0.6 W 9 13 5 7 1022.1 - 0.0
28/08:30am 5.4 2.5 4.4 93 0.4 WSW 9 11 5 6 1022.1 - 0.0
28/08:00am 4.7 2.0 3.7 93 0.4 W 7 9 4 5 1022.0 - 0.0
28/07:30am 4.5 -0.2 3.3 92 0.5 WNW 17 22 9 12 1021.8 - 0.0
28/07:00am 4.5 -0.1 3.5 93 0.4 WNW 17 24 9 13 1021.5 - 0.0
28/06:30am 4.8 -2.9 3.5 91 0.6 WNW 33 41 18 22 1020.7 - 0.0
28/06:00am 4.6 -2.5 3.3 91 0.6 WNW 30 37 16 20 1020.9 1022.1 0.0
28/05:30am 4.7 -2.4 3.4 91 0.6 WNW 30 41 16 22 1020.4 - 0.0
28/05:00am 4.6 -1.1 3.1 90 0.6 WNW 22 30 12 16 1020.8 - 0.0
28/04:30am 5.0 -0.6 3.3 89 0.7 WNW 22 32 12 17 1020.8 - 0.0
28/04:00am 5.4 -1.4 3.3 86 0.9 WNW 28 37 15 20 1020.8 - 0.0
28/03:30am 5.1 0.1 3.6 90 0.7 W 19 24 10 13 1021.1 - 0.0
28/03:03am 5.0 1.6 3.8 92 0.5 W 11 17 6 9 1021.0 - 0.0
28/03:00am 5.0 1.9 3.8 92 0.5 W 9 13 5 7 1021.1 1022.3 0.0
28/02:30am 5.3 0.8 4.1 92 0.5 W 17 24 9 13 1021.5 - 0.0
28/02:00am 5.5 -1.5 4.2 91 0.6 W 30 39 16 21 1021.9 - 0.0
28/01:30am 5.5 0.0 4.2 91 0.6 WNW 22 32 12 17 1022.0 - 0.0
28/01:00am 5.7 0.3 4.3 91 0.6 WNW 22 30 12 16 1021.9 - 0.0
28/12:30am 5.8 1.7 4.4 91 0.6 WNW 15 20 8 11 1022.1 - 0.0
28/12:00am 6.0 0.6 4.5 90 0.7 WNW 22 35 12 19 1022.4 1023.6 0.0
 
Date/Time
EST
Tmp

°C
App
Tmp
°C
Dew
Point
°C
Rel
Hum
%
Delta-T

°C
Wind Press
QNH
hPa
Press
MSL
hPa
Rain
since
9 am
mm
Dir
 
Spd
km/h
Gust
km/h
Spd
kts
Gust
kts
27/11:30pm 5.8 1.7 4.4 91 0.6 WNW 15 20 8 11 1022.7 - 0.0
27/11:03pm 5.5 -0.3 4.2 91 0.6 W 24 32 13 17 1023.0 - 0.0
27/11:00pm 5.5 -0.3 4.3 92 0.5 W 24 32 13 17 1022.9 - 0.0
27/10:30pm 5.4 -0.5 3.7 89 0.7 W 24 32 13 17 1023.0 - 0.0
27/10:00pm 5.8 0.7 4.0 88 0.8 NW 20 39 11 21 1022.6 - 0.0
27/09:30pm 5.3 1.9 3.8 90 0.7 N 11 24 6 13 1022.7 - 0.0
27/09:00pm 5.2 1.4 3.7 90 0.7 N 13 17 7 9 1022.6 1023.8 0.0
27/08:30pm 5.6 0.7 3.9 89 0.7 NNW 19 22 10 12 1022.7 - 0.0
27/08:00pm 5.9 1.7 3.9 87 0.9 NNW 15 19 8 10 1023.3 - 0.0
27/07:30pm 6.6 0.8 4.6 87 0.9 WNW 24 32 13 17 1023.3 - 0.0
27/07:00pm 6.4 1.6 4.4 87 0.9 WNW 19 28 10 15 1023.6 - 0.0
27/06:30pm 6.8 1.8 4.5 85 1.0 W 20 26 11 14 1023.7 - 0.0
27/06:00pm 6.6 1.6 3.6 81 1.3 WNW 19 22 10 12 1023.6 1024.8 0.0
27/05:30pm 7.3 3.8 3.5 77 1.7 NW 11 19 6 10 1022.9 - 0.0
27/05:00pm 8.6 2.3 3.8 72 2.2 WNW 26 32 14 17 1022.9 - 0.0
27/04:30pm 9.4 2.0 3.8 68 2.5 W 32 41 17 22 1022.9 - 0.0
27/04:00pm 10.1 2.7 4.0 66 2.8 W 32 41 17 22 1022.8 - 0.0
27/03:30pm 10.8 3.7 3.8 62 3.2 WNW 30 37 16 20 1022.6 - 0.0
27/03:00pm 10.7 3.7 4.2 64 3.0 W 30 37 16 20 1022.6 1023.8 0.0
27/02:30pm 11.5 4.2 4.3 61 3.4 WNW 32 39 17 21 1022.5 - 0.0
27/02:00pm 12.3 5.8 4.8 60 3.6 W 28 39 15 21 1022.5 - 0.0
27/01:30pm 11.2 5.4 4.4 63 3.2 W 24 35 13 19 1022.9 - 0.0
27/01:00pm 11.6 5.5 5.0 64 3.1 W 26 32 14 17 1023.0 - 0.0
27/12:30pm 11.5 5.9 5.6 67 2.8 WNW 24 32 13 17 1023.4 - 0.0
27/12:00pm 10.9 6.0 5.2 68 2.7 WNW 20 28 11 15 1023.9 1025.1 0.0
27/11:30am 10.2 5.6 5.8 74 2.1 WNW 19 24 10 13 1024.5 - 0.0
27/11:00am 9.2 3.5 5.0 75 2.0 W 24 28 13 15 1025.2 - 0.0
27/10:53am 9.2 3.9 5.0 75 2.0 W 22 30 12 16 1025.4 - 0.0
27/10:30am 9.4 3.8 5.4 76 1.9 WNW 24 30 13 16 1025.6 - 0.0
27/10:00am 9.7 5.1 6.6 81 1.5 WNW 20 28 11 15 1025.7 - 0.0
27/09:52am 8.8 4.2 5.5 80 1.5 W 19 24 10 13 1025.7 - 0.0
27/09:36am 7.8 3.8 5.1 83 1.2 W 15 20 8 11 1025.5 - 0.0
27/09:30am 7.5 2.7 4.6 82 1.3 W 19 24 10 13 1025.4 - 0.0
27/09:00am 7.3 3.3 4.8 84 1.1 W 15 20 8 11 1025.4 1026.6 0.0
27/08:44am 7.3 3.0 5.1 86 1.0 W 17 22 9 12 1025.5 - 0.0
27/08:37am 7.3 3.8 5.3 87 0.9 W 13 19 7 10 1025.5 - 0.0
27/08:30am 6.9 3.7 4.9 87 0.9 WNW 11 17 6 9 1025.4 - 0.0
27/08:00am 6.0 2.7 4.8 92 0.5 WNW 11 13 6 7 1025.1 - 0.0
27/07:30am 5.4 2.8 4.1 91 0.6 WNW 7 17 4 9 1024.8 - 0.0
27/07:00am 5.8 0.8 4.4 91 0.6 WNW 20 24 11 13 1025.0 - 0.0
27/06:30am 6.2 2.9 4.7 90 0.7 NNW 11 15 6 8 1024.5 - 0.0
27/06:00am 6.0 2.3 4.5 90 0.7 WNW 13 20 7 11 1024.0 1025.2 0.0
27/05:56am 6.0 1.9 4.5 90 0.7 WNW 15 20 8 11 1024.1 - 0.0
27/05:39am 5.9 0.5 4.4 90 0.7 WNW 22 28 12 15 1023.8 - 0.0
27/05:30am 6.1 1.3 4.6 90 0.7 WNW 19 26 10 14 1023.8 - 0.0
27/05:00am 6.8 4.0 5.3 90 0.7 NW 9 13 5 7 1023.8 - 0.0
27/04:30am 6.7 1.8 5.2 90 0.7 WNW 20 26 11 14 1023.7 - 0.0
27/04:00am 6.4 4.1 5.0 91 0.6 NNW 6 9 3 5 1023.8 - 0.0
27/03:30am 6.6 3.0 5.2 91 0.6 W 13 19 7 10 1023.8 - 0.0
27/03:00am 6.7 3.5 5.2 90 0.7 NW 11 17 6 9 1023.9 1025.1 0.0
27/02:30am 6.7 3.5 5.3 91 0.6 WNW 11 15 6 8 1024.0 - 0.0
27/02:00am 6.7 2.1 5.7 93 0.5 W 19 28 10 15 1024.0 - 0.0
27/01:30am 5.5 3.1 4.2 91 0.6 WSW 6 11 3 6 1024.1 - 0.0
27/01:00am 6.2 3.0 5.2 93 0.5 W 11 15 6 8 1024.1 - 0.0
27/12:30am 6.0 1.9 4.5 90 0.7 W 15 20 8 11 1024.0 - 0.0
27/12:16am 6.6 1.7 5.1 90 0.7 W 20 30 11 16 1024.0 - 0.0
27/12:00am 6.8 1.1 5.1 89 0.8 W 24 35 13 19 1024.1 1025.3 0.0
 
Date/Time
EST
Tmp

°C
App
Tmp
°C
Dew
Point
°C
Rel
Hum
%
Delta-T

°C
Wind Press
QNH
hPa
Press
MSL
hPa
Rain
since
9 am
mm
Dir
 
Spd
km/h
Gust
km/h
Spd
kts
Gust
kts
26/11:30pm 6.7 0.7 5.3 91 0.6 W 26 37 14 20 1024.1 - 0.0
26/11:00pm 6.0 2.0 5.0 93 0.5 W 15 22 8 12 1024.3 - 0.0
26/10:30pm 6.2 1.4 4.8 91 0.6 WNW 19 24 10 13 1024.2 - 0.0
26/10:00pm 6.2 1.5 5.0 92 0.5 W 19 24 10 13 1024.1 - 0.0
26/09:30pm 6.7 1.4 5.0 89 0.8 W 22 30 12 16 1024.2 - 0.0
26/09:00pm 6.9 1.3 5.2 89 0.8 W 24 30 13 16 1023.9 1025.1 0.0
26/08:30pm 7.4 2.8 5.4 87 0.9 W 19 26 10 14 1024.0 - 0.0
26/08:00pm 7.3 2.6 5.3 87 0.9 W 19 22 10 12 1024.0 - 0.0
26/07:30pm 7.5 2.8 5.3 86 1.0 WNW 19 26 10 14 1023.7 - 0.0
26/07:00pm 7.6 2.3 5.2 85 1.1 WNW 22 30 12 16 1023.6 - 0.0
26/06:30pm 7.8 2.5 5.1 83 1.2 WNW 22 28 12 15 1023.5 - 0.0
26/06:00pm 8.7 1.6 5.4 80 1.5 W 32 41 17 22 1023.1 1024.4 0.0
26/05:30pm 9.2 4.6 5.8 79 1.6 WNW 19 24 10 13 1022.7 - 0.0
26/05:00pm 9.9 6.4 5.3 73 2.2 W 13 20 7 11 1022.5 - 0.0
26/04:30pm 11.5 5.5 5.4 66 2.9 W 26 33 14 18 1022.2 - 0.0
26/04:00pm 12.3 5.9 5.2 62 3.4 W 28 35 15 19 1022.0 - 0.0
26/03:30pm 12.5 5.7 5.2 61 3.5 W 30 37 16 20 1021.8 - 0.0
26/03:00pm 13.2 6.6 5.9 61 3.6 W 30 39 16 21 1021.7 1022.9 0.0
26/02:30pm 11.1 5.2 6.0 71 2.5 WSW 26 35 14 19 1021.4 - 0.0
26/02:00pm 13.0 6.1 4.7 57 4.0 WSW 30 43 16 23 1021.7 - 0.0
26/01:30pm 13.6 6.3 4.7 55 4.3 W 32 43 17 23 1021.7 - 0.0
26/01:00pm 13.8 6.7 5.7 58 4.0 WNW 32 43 17 23 1021.7 - 0.0
26/12:30pm 13.5 8.0 6.1 61 3.6 W 24 32 13 17 1022.2 - 0.0
26/12:00pm 13.0 7.4 5.4 60 3.7 W 24 30 13 16 1022.8 1024.1 0.0
26/11:30am 12.9 7.3 5.6 61 3.5 W 24 33 13 18 1023.5 - 0.0
26/11:00am 12.3 7.8 7.0 70 2.6 W 20 28 11 15 1023.9 - 0.0
26/10:30am 11.8 7.9 7.1 73 2.3 WNW 17 26 9 14 1024.2 - 0.0
26/10:00am 11.2 7.1 7.9 80 1.7 NW 19 22 10 12 1024.3 - 0.0
26/09:30am 9.9 7.3 9.4 97 0.3 NW 13 17 7 9 1024.3 - 0.0
26/09:00am 7.5 5.6 7.4 99 0.0 N 7 9 4 5 1023.9 1025.1 0.8
26/08:30am 5.7 3.9 5.6 99 0.0 N 4 7 2 4 1024.0 - 0.8
26/08:11am 4.5 2.9 4.4 99 0.0 NE 2 6 1 3 1023.9 - 0.8
26/08:00am 4.3 3.0 4.2 99 0.0 CALM 0 0 0 0 1023.9 - 0.8
26/07:55am 4.2 2.9 4.1 99 0.0 CALM 0 0 0 0 1024.1 - 0.8
26/07:30am 3.8 2.4 3.7 99 0.0 CALM 0 2 0 1 1023.7 - 0.8
26/07:00am 3.7 1.5 3.6 99 0.0 E 4 7 2 4 1023.8 - 0.8
26/06:46am 3.7 1.0 3.6 99 0.0 N 7 9 4 5 1023.8 - 0.8
26/06:44am 3.7 1.2 3.6 99 0.0 NNW 6 9 3 5 1023.8 - 0.8
26/06:30am 3.6 2.2 3.5 99 0.0 CALM 0 0 0 0 1023.3 - 0.8
26/06:00am 4.2 1.8 4.1 99 0.0 S 6 7 3 4 1023.0 1024.3 0.8
26/05:30am 4.6 2.2 4.5 99 0.0 N 6 6 3 3 1022.9 - 0.8
26/05:00am 5.5 2.4 5.4 99 0.0 N 11 13 6 7 1023.0 - 0.8
26/04:30am 3.9 1.4 3.6 98 0.1 N 6 7 3 4 1022.6 - 0.8
26/04:00am 3.3 0.5 3.0 98 0.1 ESE 7 9 4 5 1022.7 - 0.8
26/03:30am 3.6 1.0 3.3 98 0.1 S 6 9 3 5 1022.4 - 0.8
26/03:00am 3.8 2.4 3.5 98 0.1 CALM 0 0 0 0 1022.8 1024.1 0.8
26/02:30am 3.9 2.5 3.6 98 0.1 CALM 0 0 0 0 1022.9 - 0.8
26/02:00am 2.4 -0.4 1.8 96 0.2 SE 6 7 3 4 1023.3 - 0.8
26/01:30am 2.8 1.1 2.1 95 0.3 CALM 0 0 0 0 1023.1 - 0.8
26/01:08am 3.7 2.2 3.1 96 0.3 CALM 0 0 0 0 1023.0 - 0.8
26/01:00am 4.0 2.2 3.3 95 0.3 ENE 2 7 1 4 1023.0 - 0.8
26/12:30am 4.1 0.9 3.1 93 0.4 W 9 11 5 6 1023.3 - 0.8
26/12:00am 6.6 3.2 5.7 94 0.4 W 13 15 7 8 1023.3 1024.5 0.8
 
Date/Time
EST
Tmp

°C
App
Tmp
°C
Dew
Point
°C
Rel
Hum
%
Delta-T

°C
Wind Press
QNH
hPa
Press
MSL
hPa
Rain
since
9 am
mm
Dir
 
Spd
km/h
Gust
km/h
Spd
kts
Gust
kts
25/11:30pm 7.5 3.9 6.9 96 0.3 NW 15 15 8 8 1023.5 - 0.8
25/11:00pm 7.4 3.8 6.8 96 0.3 NW 15 17 8 9 1023.3 - 0.8
25/10:30pm 8.2 6.0 7.9 98 0.1 NW 9 13 5 7 1023.0 - 0.8
25/10:00pm 7.4 4.6 7.0 97 0.2 WNW 11 15 6 8 1023.1 - 0.4
25/09:30pm 5.5 3.0 4.9 96 0.3 NNW 7 9 4 5 1022.7 - 0.2
25/09:00pm 6.4 3.0 6.0 97 0.2 NNW 13 15 7 8 1022.4 1023.6 0.2
25/08:30pm 4.4 1.7 3.5 94 0.4 WNW 7 9 4 5 1022.4 - 0.2

Latest Capital City Observations: Canberra | Sydney | Melbourne | Brisbane | Adelaide | Perth | Hobart | Darwin

Other Formats:

Comma delimited format used in spreadsheet applications
http://www.bom.gov.au/fwo/IDN60903/IDN60903.95716.axf

JavaScript Object Notation format (JSON) in row-major order
http://www.bom.gov.au/fwo/IDN60903/IDN60903.95716.json